createdAt,value
2022-08-03T00:01:49.467Z,100.00
2022-08-03T00:04:16.080Z,100.00
2022-08-03T00:06:42.744Z,100.00
2022-08-03T00:09:10.212Z,100.00
2022-08-03T00:11:36.870Z,100.00
2022-08-03T00:14:05.089Z,100.00
2022-08-03T00:16:31.992Z,100.00
2022-08-03T00:18:58.564Z,100.00
2022-08-03T00:21:28.692Z,100.00
2022-08-03T00:23:55.300Z,100.00
2022-08-03T00:26:22.017Z,100.00
2022-08-03T00:28:49.603Z,100.00
2022-08-03T00:31:16.469Z,100.00
2022-08-03T00:33:58.025Z,100.00
2022-08-03T00:36:27.484Z,100.00
2022-08-03T00:38:54.296Z,100.00
2022-08-03T00:41:20.950Z,100.00
2022-08-03T00:43:47.852Z,100.00
2022-08-03T00:46:17.693Z,100.00
2022-08-03T00:48:47.467Z,100.00
2022-08-03T00:51:14.089Z,100.00
2022-08-03T00:53:41.327Z,100.00
2022-08-03T00:56:07.934Z,100.00
2022-08-03T00:58:34.692Z,100.00
2022-08-03T01:01:01.369Z,100.00
2022-08-03T01:03:28.007Z,100.00
2022-08-03T01:06:24.085Z,100.00
2022-08-03T01:09:12.310Z,100.00
2022-08-03T01:12:00.589Z,100.00
2022-08-03T01:14:46.054Z,100.00
2022-08-03T01:17:25.638Z,100.00
2022-08-03T01:20:07.601Z,100.00
2022-08-03T01:22:37.172Z,100.00
2022-08-03T01:25:03.720Z,100.00
2022-08-03T01:27:52.789Z,100.00
2022-08-03T01:30:19.842Z,100.00
2022-08-03T01:33:00.579Z,100.00
2022-08-03T01:35:42.849Z,100.00
2022-08-03T01:38:18.297Z,100.00
2022-08-03T01:40:47.036Z,100.00
2022-08-03T01:44:29.337Z,100.00
2022-08-03T01:47:02.381Z,100.00
2022-08-03T01:49:32.142Z,100.00
2022-08-03T01:52:04.409Z,100.00
2022-08-03T01:54:37.772Z,100.00
2022-08-03T01:57:05.282Z,100.00
2022-08-03T01:59:36.307Z,100.00
2022-08-03T02:02:29.788Z,100.00
2022-08-03T02:04:57.859Z,100.00
2022-08-03T02:07:27.278Z,100.00
2022-08-03T02:09:55.734Z,100.00
2022-08-03T02:12:25.261Z,100.00
2022-08-03T02:14:54.038Z,100.00
2022-08-03T02:17:39.743Z,100.00
2022-08-03T02:20:10.923Z,100.00
2022-08-03T02:22:41.087Z,100.00
2022-08-03T02:25:10.486Z,100.00
2022-08-03T02:27:43.667Z,100.00
2022-08-03T02:30:12.431Z,100.00
2022-08-03T02:32:42.614Z,100.00
2022-08-03T02:35:15.335Z,100.00
2022-08-03T02:37:45.188Z,100.00
2022-08-03T02:40:19.158Z,100.00
2022-08-03T02:42:49.456Z,100.00
2022-08-03T02:45:18.733Z,100.00
2022-08-03T02:47:54.373Z,100.00
2022-08-03T02:50:23.174Z,100.00
2022-08-03T02:52:52.153Z,100.00
2022-08-03T02:55:21.666Z,100.00
2022-08-03T02:57:49.958Z,100.00
2022-08-03T03:00:19.372Z,100.00
2022-08-03T03:02:57.938Z,100.00
2022-08-03T03:05:52.073Z,100.00
2022-08-03T03:08:17.979Z,100.00
2022-08-03T03:10:48.084Z,100.00
2022-08-03T03:13:16.304Z,100.00
2022-08-03T03:15:45.443Z,100.00
2022-08-03T03:18:12.996Z,100.00
2022-08-03T03:20:40.949Z,100.00
2022-08-03T03:23:09.353Z,100.00
2022-08-03T03:25:36.398Z,100.00
2022-08-03T03:28:03.834Z,100.00
2022-08-03T03:30:33.547Z,100.00
2022-08-03T03:33:00.220Z,100.00
2022-08-03T03:35:27.979Z,100.00
2022-08-03T03:37:54.829Z,100.00
2022-08-03T03:40:22.695Z,100.00
2022-08-03T03:42:50.297Z,100.00
2022-08-03T03:45:17.890Z,100.00
2022-08-03T03:47:44.511Z,100.00
2022-08-03T03:50:11.830Z,100.00
2022-08-03T03:52:38.485Z,100.00
2022-08-03T03:55:05.650Z,100.00
2022-08-03T03:57:32.309Z,100.00
2022-08-03T03:59:58.901Z,100.00
2022-08-03T04:02:25.732Z,100.00
2022-08-03T04:05:10.856Z,100.00
2022-08-03T04:08:14.579Z,100.00
2022-08-03T04:10:59.052Z,100.00
2022-08-03T04:13:31.618Z,100.00
2022-08-03T04:15:59.497Z,100.00
2022-08-03T04:18:28.164Z,100.00
2022-08-03T04:20:59.311Z,100.00
2022-08-03T04:23:28.211Z,100.00
2022-08-03T04:25:56.627Z,100.00
2022-08-03T04:28:30.945Z,100.00
2022-08-03T04:31:01.372Z,100.00
2022-08-03T04:33:31.201Z,100.00
2022-08-03T04:36:03.397Z,100.00
2022-08-03T04:38:36.369Z,100.00
2022-08-03T04:41:03.630Z,100.00
2022-08-03T04:43:32.828Z,100.00
2022-08-03T04:46:01.538Z,100.00
2022-08-03T04:48:28.880Z,100.00
2022-08-03T04:50:55.533Z,100.00
2022-08-03T04:53:22.453Z,100.00
2022-08-03T04:55:49.949Z,100.00
2022-08-03T04:58:16.598Z,100.00
2022-08-03T05:00:43.416Z,100.00
2022-08-03T05:03:19.562Z,100.00
2022-08-03T05:06:01.902Z,100.00
2022-08-03T05:08:36.163Z,100.00
2022-08-03T05:11:13.240Z,100.00
2022-08-03T05:13:39.886Z,100.00
2022-08-03T05:16:06.449Z,100.00
2022-08-03T05:18:33.087Z,100.00
2022-08-03T05:20:59.674Z,100.00
2022-08-03T05:23:26.276Z,100.00
2022-08-03T05:25:52.885Z,100.00
2022-08-03T05:28:19.466Z,100.00
2022-08-03T05:30:46.395Z,100.00
2022-08-03T05:33:13.026Z,100.00
2022-08-03T05:36:01.980Z,100.00
2022-08-03T05:38:34.146Z,100.00
2022-08-03T05:41:22.197Z,100.00
2022-08-03T05:43:54.906Z,100.00
2022-08-03T05:46:25.188Z,100.00
2022-08-03T05:48:52.449Z,100.00
2022-08-03T05:51:19.240Z,100.00
2022-08-03T05:53:46.311Z,100.00
2022-08-03T05:56:15.708Z,100.00
2022-08-03T05:58:45.077Z,100.00
2022-08-03T06:01:12.137Z,100.00
2022-08-03T06:03:38.803Z,100.00
2022-08-03T06:06:05.488Z,100.00
2022-08-03T06:08:32.289Z,100.00
2022-08-03T06:10:58.902Z,100.00
2022-08-03T06:13:25.465Z,100.00
2022-08-03T06:15:52.568Z,100.00
2022-08-03T06:18:19.278Z,100.00
2022-08-03T06:20:47.219Z,100.00
2022-08-03T06:23:18.061Z,100.00
2022-08-03T06:25:45.741Z,100.00
2022-08-03T06:28:42.447Z,100.00
2022-08-03T06:31:01.014Z,100.00
2022-08-03T06:34:30.461Z,100.00
2022-08-03T06:36:14.763Z,100.00
2022-08-03T06:38:41.383Z,100.00
2022-08-03T06:41:08.060Z,100.00
2022-08-03T06:43:38.099Z,100.00
2022-08-03T06:46:24.593Z,100.00
2022-08-03T06:48:52.586Z,100.00
2022-08-03T06:51:19.180Z,100.00
2022-08-03T06:53:45.828Z,100.00
2022-08-03T06:56:12.389Z,100.00
2022-08-03T06:58:39.083Z,100.00
2022-08-03T07:01:05.726Z,100.00
2022-08-03T07:03:32.564Z,100.00
2022-08-03T07:05:59.843Z,100.00
2022-08-03T07:08:33.900Z,100.00
2022-08-03T07:11:01.417Z,100.00
2022-08-03T07:13:28.245Z,100.00
2022-08-03T07:15:56.414Z,100.00
2022-08-03T07:18:25.649Z,100.00
2022-08-03T07:20:58.024Z,100.00
2022-08-03T07:23:25.578Z,100.00
2022-08-03T07:25:52.571Z,100.00
2022-08-03T07:28:20.390Z,100.00
2022-08-03T07:30:47.609Z,100.00
2022-08-03T07:33:15.246Z,100.00
2022-08-03T07:35:42.477Z,100.00
2022-08-03T07:38:09.079Z,100.00
2022-08-03T07:40:35.657Z,100.00
2022-08-03T07:43:03.471Z,100.00
2022-08-03T07:45:31.841Z,100.00
2022-08-03T07:47:58.433Z,100.00
2022-08-03T07:50:25.444Z,100.00
2022-08-03T07:52:53.630Z,100.00
2022-08-03T07:55:24.030Z,100.00
2022-08-03T07:58:22.035Z,100.00
2022-08-03T08:00:52.951Z,100.00
2022-08-03T08:03:21.878Z,100.00
2022-08-03T08:05:49.262Z,100.00
2022-08-03T08:08:15.952Z,100.00
2022-08-03T08:10:42.655Z,100.00
2022-08-03T08:13:24.731Z,100.00
2022-08-03T08:15:51.394Z,100.00
2022-08-03T08:18:20.587Z,100.00
2022-08-03T08:20:47.228Z,100.00
2022-08-03T08:23:33.219Z,100.00
2022-08-03T08:26:01.388Z,100.00
2022-08-03T08:28:32.808Z,100.00
2022-08-03T08:31:00.645Z,100.00
2022-08-03T08:33:37.340Z,100.00
2022-08-03T08:36:15.590Z,100.00
2022-08-03T08:38:44.697Z,100.00
2022-08-03T08:41:13.187Z,100.00
2022-08-03T08:43:39.925Z,100.00
2022-08-03T08:46:10.284Z,100.00
2022-08-03T08:48:42.445Z,100.00
2022-08-03T08:51:12.100Z,100.00
2022-08-03T08:53:43.162Z,100.00
2022-08-03T08:56:16.249Z,100.00
2022-08-03T08:58:49.036Z,100.00
2022-08-03T09:01:19.519Z,100.00
2022-08-03T09:03:47.316Z,100.00
2022-08-03T09:06:15.099Z,100.00
2022-08-03T09:08:42.059Z,100.00
2022-08-03T09:11:09.081Z,100.00
2022-08-03T09:13:39.652Z,100.00
2022-08-03T09:16:12.726Z,92.93
2022-08-03T09:18:40.387Z,98.11
2022-08-03T09:21:32.266Z,93.18
2022-08-03T09:24:03.794Z,89.05
2022-08-03T09:26:33.041Z,84.90
2022-08-03T09:29:14.901Z,89.25
2022-08-03T09:31:46.935Z,83.33
2022-08-03T09:34:16.384Z,85.75
2022-08-03T09:36:46.408Z,84.46
2022-08-03T09:39:15.261Z,84.45
2022-08-03T09:41:48.932Z,82.42
2022-08-03T09:44:24.211Z,85.16
2022-08-03T09:46:56.592Z,85.38
2022-08-03T09:49:24.557Z,88.26
2022-08-03T09:52:29.994Z,87.91
2022-08-03T09:54:38.896Z,85.89
2022-08-03T09:57:05.504Z,81.78
2022-08-03T09:59:33.658Z,75.72
2022-08-03T10:02:00.883Z,80.59
2022-08-03T10:04:27.820Z,83.51
2022-08-03T10:07:09.315Z,77.61
2022-08-03T10:09:36.916Z,77.51
2022-08-03T10:12:11.960Z,79.08
2022-08-03T10:14:41.851Z,73.76
2022-08-03T10:17:09.796Z,76.86
2022-08-03T10:19:36.885Z,77.72
2022-08-03T10:22:10.670Z,76.10
2022-08-03T10:24:39.292Z,77.47
2022-08-03T10:27:11.483Z,78.16
2022-08-03T10:29:42.825Z,75.53
2022-08-03T10:32:15.902Z,76.17
2022-08-03T10:34:44.836Z,75.33
2022-08-03T10:37:13.991Z,77.32
2022-08-03T10:39:53.447Z,76.41
2022-08-03T10:42:26.421Z,76.26
2022-08-03T10:45:05.134Z,79.58
2022-08-03T10:47:33.211Z,79.28
2022-08-03T10:50:01.117Z,76.86
2022-08-03T10:52:31.987Z,80.44
2022-08-03T10:55:19.142Z,79.10
2022-08-03T10:57:49.819Z,80.30
2022-08-03T11:00:19.261Z,78.22
2022-08-03T11:03:08.917Z,76.31
2022-08-03T11:05:41.949Z,78.51
2022-08-03T11:08:44.117Z,81.95
2022-08-03T11:11:19.672Z,80.91
2022-08-03T11:14:12.524Z,81.90
2022-08-03T11:16:41.590Z,84.01
2022-08-03T11:19:10.596Z,83.45
2022-08-03T11:21:52.350Z,81.38
2022-08-03T11:24:37.362Z,85.85
2022-08-03T11:27:17.436Z,84.18
2022-08-03T11:29:57.992Z,85.91
2022-08-03T11:32:48.576Z,84.63
2022-08-03T11:35:33.727Z,83.51
2022-08-03T11:38:01.442Z,81.08
2022-08-03T11:40:44.896Z,83.39
2022-08-03T11:43:31.308Z,80.17
2022-08-03T11:46:02.501Z,83.34
2022-08-03T11:48:38.649Z,82.76
2022-08-03T11:51:07.663Z,81.10
2022-08-03T11:53:42.193Z,84.23
2022-08-03T11:56:12.702Z,82.46
2022-08-03T11:58:58.395Z,79.44
2022-08-03T12:01:35.101Z,80.62
2022-08-03T12:04:06.230Z,79.19
2022-08-03T12:06:55.013Z,78.68
2022-08-03T12:09:22.022Z,75.60
2022-08-03T12:12:00.757Z,72.84
2022-08-03T12:14:49.276Z,77.50
2022-08-03T12:17:16.169Z,74.88
2022-08-03T12:19:43.945Z,76.83
2022-08-03T12:22:10.554Z,77.23
2022-08-03T12:24:46.615Z,76.01
2022-08-03T12:27:23.171Z,74.53
2022-08-03T12:29:58.359Z,75.38
2022-08-03T12:32:26.071Z,72.84
2022-08-03T12:34:52.821Z,76.91
2022-08-03T12:37:22.731Z,75.41
2022-08-03T12:40:02.601Z,76.38
2022-08-03T12:42:34.853Z,72.41
2022-08-03T12:45:19.164Z,74.27
2022-08-03T12:47:58.213Z,77.84
2022-08-03T12:50:26.239Z,77.08
2022-08-03T12:52:52.871Z,73.95
2022-08-03T12:55:20.747Z,73.81
2022-08-03T12:57:47.289Z,71.04
2022-08-03T13:00:29.111Z,71.37
2022-08-03T13:03:41.873Z,72.08
2022-08-03T13:05:50.663Z,71.86
2022-08-03T13:08:19.332Z,69.60
2022-08-03T13:10:46.199Z,68.68
2022-08-03T13:13:12.753Z,71.37
2022-08-03T13:15:48.138Z,69.38
2022-08-03T13:18:17.191Z,69.58
2022-08-03T13:20:44.203Z,67.45
2022-08-03T13:23:21.903Z,65.02
2022-08-03T13:25:55.102Z,64.15
2022-08-03T13:28:22.775Z,63.42
2022-08-03T13:30:49.377Z,61.47
2022-08-03T13:33:15.988Z,62.31
2022-08-03T13:35:42.534Z,59.46
2022-08-03T13:38:09.170Z,61.47
2022-08-03T13:40:41.344Z,60.17
2022-08-03T13:43:08.155Z,55.71
2022-08-03T13:45:34.785Z,58.80
2022-08-03T13:48:01.439Z,58.85
2022-08-03T13:50:28.036Z,58.31
2022-08-03T13:52:54.632Z,56.39
2022-08-03T13:55:21.230Z,61.83
2022-08-03T13:58:03.732Z,61.00
2022-08-03T14:00:34.357Z,61.17
2022-08-03T14:03:12.218Z,67.67
2022-08-03T14:05:39.698Z,65.52
2022-08-03T14:08:07.403Z,60.27
2022-08-03T14:10:38.709Z,56.40
2022-08-03T14:13:06.106Z,59.09
2022-08-03T14:15:37.551Z,64.65
2022-08-03T14:18:05.733Z,64.29
2022-08-03T14:20:37.735Z,63.24
2022-08-03T14:23:06.875Z,64.71
2022-08-03T14:25:44.344Z,56.76
2022-08-03T14:28:19.098Z,54.11
2022-08-03T14:30:46.073Z,52.67
2022-08-03T14:33:12.677Z,52.37
2022-08-03T14:35:39.227Z,53.59
2022-08-03T14:38:05.898Z,55.14
2022-08-03T14:40:32.698Z,54.18
2022-08-03T14:42:59.303Z,53.70
2022-08-03T14:45:25.870Z,54.35
2022-08-03T14:50:33.887Z,54.33
2022-08-03T14:50:44.176Z,53.10
2022-08-03T14:53:12.465Z,51.02
2022-08-03T14:55:50.846Z,48.87
2022-08-03T14:58:22.508Z,55.67
2022-08-03T15:00:51.150Z,56.35
2022-08-03T15:03:23.834Z,56.22
2022-08-03T15:05:54.847Z,55.37
2022-08-03T15:08:22.978Z,55.88
2022-08-03T15:10:50.545Z,55.61
2022-08-03T15:13:18.047Z,50.54
2022-08-03T15:15:44.761Z,50.47
2022-08-03T15:18:11.440Z,56.18
2022-08-03T15:20:46.692Z,55.73
2022-08-03T15:23:15.496Z,53.19
2022-08-03T15:26:28.508Z,53.09
2022-08-03T15:28:30.572Z,49.93
2022-08-03T15:30:57.227Z,52.65
2022-08-03T15:33:23.799Z,49.43
2022-08-03T15:35:50.510Z,51.27
2022-08-03T15:38:17.388Z,50.10
2022-08-03T15:40:44.012Z,49.05
2022-08-03T15:43:10.689Z,50.09
2022-08-03T15:45:37.760Z,48.75
2022-08-03T15:48:07.317Z,50.29
2022-08-03T15:50:33.989Z,47.97
2022-08-03T15:53:00.567Z,50.50
2022-08-03T15:55:27.301Z,51.61
2022-08-03T15:58:59.647Z,55.56
2022-08-03T16:00:41.678Z,57.51
2022-08-03T16:03:08.402Z,57.91
2022-08-03T16:05:35.486Z,55.76
2022-08-03T16:08:03.855Z,54.96
2022-08-03T16:10:32.524Z,52.92
2022-08-03T16:13:00.100Z,53.59
2022-08-03T16:15:27.660Z,56.19
2022-08-03T16:17:54.376Z,57.71
2022-08-03T16:20:29.735Z,56.09
2022-08-03T16:23:01.527Z,64.43
2022-08-03T16:25:35.148Z,70.53
2022-08-03T16:28:08.279Z,75.84
2022-08-03T16:30:40.969Z,79.41
2022-08-03T16:33:07.845Z,76.80
2022-08-03T16:35:34.524Z,77.88
2022-08-03T16:38:01.171Z,81.28
2022-08-03T16:40:28.098Z,82.72
2022-08-03T16:42:54.970Z,83.07
2022-08-03T16:45:21.698Z,83.92
2022-08-03T16:47:48.317Z,82.87
2022-08-03T16:50:28.491Z,79.35
2022-08-03T16:52:55.115Z,85.54
2022-08-03T16:55:51.693Z,87.55
2022-08-03T16:58:08.281Z,86.49
2022-08-03T17:00:41.720Z,86.35
2022-08-03T17:03:18.979Z,84.29
2022-08-03T17:05:49.552Z,86.78
2022-08-03T17:08:18.914Z,84.59
2022-08-03T17:10:52.987Z,87.27
2022-08-03T17:13:22.022Z,88.29
2022-08-03T17:16:00.848Z,87.22
2022-08-03T17:18:34.899Z,88.83
2022-08-03T17:21:06.114Z,85.75
2022-08-03T17:23:46.345Z,87.58
2022-08-03T17:26:20.885Z,87.89
2022-08-03T17:28:56.444Z,88.72
2022-08-03T17:31:31.094Z,88.00
2022-08-03T17:34:01.146Z,87.30
2022-08-03T17:36:47.516Z,87.66
2022-08-03T17:39:19.182Z,88.87
2022-08-03T17:41:51.152Z,88.88
2022-08-03T17:44:35.195Z,88.02
2022-08-03T17:49:52.842Z,87.11
2022-08-03T17:52:22.594Z,88.33
2022-08-03T17:55:55.441Z,87.62
2022-08-03T17:58:02.657Z,88.79
2022-08-03T18:00:51.779Z,88.82
2022-08-03T18:03:57.972Z,88.12
2022-08-03T18:06:31.259Z,88.91
2022-08-03T18:11:51.358Z,89.95
2022-08-03T18:14:57.147Z,88.99
2022-08-03T18:17:55.217Z,90.73
2022-08-03T18:20:34.072Z,91.05
2022-08-03T18:23:04.737Z,90.65
2022-08-03T18:25:42.903Z,90.98
2022-08-03T18:28:16.403Z,92.36
2022-08-03T18:30:53.283Z,94.12
2022-08-03T18:34:18.154Z,94.30
2022-08-03T18:36:11.069Z,94.20
2022-08-03T18:38:46.514Z,91.47
2022-08-03T18:41:20.536Z,94.27
2022-08-03T18:46:59.345Z,93.49
2022-08-03T18:49:44.912Z,96.02
2022-08-03T18:52:17.646Z,97.01
2022-08-03T18:55:07.347Z,96.58
2022-08-03T18:57:48.699Z,96.42
2022-08-03T19:00:17.316Z,96.42
2022-08-03T19:03:05.243Z,97.25
2022-08-03T19:05:56.220Z,98.15
2022-08-03T19:08:40.752Z,98.82
2022-08-03T19:11:11.147Z,100.00
2022-08-03T19:13:50.224Z,100.00
2022-08-03T19:16:28.609Z,100.00
2022-08-03T19:18:59.178Z,100.00
2022-08-03T19:21:30.847Z,100.00
2022-08-03T19:24:05.570Z,100.00
2022-08-03T19:26:38.479Z,100.00
2022-08-03T19:29:14.762Z,100.00
2022-08-03T19:31:58.823Z,100.00
2022-08-03T19:34:28.805Z,100.00
2022-08-03T19:36:58.605Z,100.00
2022-08-03T19:39:25.845Z,100.00
2022-08-03T19:41:58.301Z,100.00
2022-08-03T19:44:37.361Z,100.00
2022-08-03T19:47:16.975Z,100.00
2022-08-03T19:50:06.025Z,100.00
2022-08-03T19:52:36.499Z,100.00
2022-08-03T19:55:12.090Z,100.00
2022-08-03T19:57:44.124Z,100.00
2022-08-03T20:00:13.921Z,100.00
2022-08-03T20:02:41.409Z,100.00
2022-08-03T20:05:14.762Z,100.00
2022-08-03T20:07:47.461Z,100.00
2022-08-03T20:10:16.633Z,100.00
2022-08-03T20:12:45.545Z,100.00
2022-08-03T20:15:12.649Z,100.00
2022-08-03T20:17:54.537Z,100.00
2022-08-03T20:20:30.211Z,100.00
2022-08-03T20:22:58.849Z,100.00
2022-08-03T20:25:38.088Z,100.00
2022-08-03T20:28:15.121Z,100.00
2022-08-03T20:30:44.343Z,100.00
2022-08-03T20:33:18.963Z,100.00
2022-08-03T20:35:49.009Z,100.00
2022-08-03T20:38:17.791Z,100.00
2022-08-03T20:40:45.567Z,100.00
2022-08-03T20:43:12.130Z,100.00
2022-08-03T20:45:58.466Z,100.00
2022-08-03T20:48:27.590Z,100.00
2022-08-03T20:50:56.514Z,100.00
2022-08-03T20:53:57.422Z,100.00
2022-08-03T20:56:10.162Z,100.00
2022-08-03T20:58:37.177Z,100.00
2022-08-03T21:01:08.409Z,100.00
2022-08-03T21:03:40.602Z,100.00
2022-08-03T21:06:27.620Z,100.00
2022-08-03T21:09:03.781Z,100.00
2022-08-03T21:11:41.949Z,100.00
2022-08-03T21:12:55.171Z,88.06
2022-08-03T21:13:04.018Z,89.91
2022-08-03T21:13:04.521Z,93.28
2022-08-03T21:14:49.059Z,100.00
2022-08-03T21:17:38.344Z,100.00
2022-08-03T21:20:11.815Z,100.00
2022-08-03T21:22:42.562Z,100.00
2022-08-03T21:25:10.388Z,100.00
2022-08-03T21:27:37.226Z,100.00
2022-08-03T21:30:07.938Z,100.00
2022-08-03T21:32:35.003Z,100.00
2022-08-03T21:35:02.213Z,100.00
2022-08-03T21:37:28.919Z,100.00
2022-08-03T21:39:56.277Z,100.00
2022-08-03T21:42:23.936Z,100.00
2022-08-03T21:44:53.853Z,100.00
2022-08-03T21:47:24.916Z,100.00
2022-08-03T21:50:08.602Z,100.00
2022-08-03T21:52:41.115Z,100.00
2022-08-03T21:55:08.841Z,100.00
2022-08-03T21:57:52.949Z,100.00
2022-08-03T22:00:23.008Z,100.00
2022-08-03T22:02:55.828Z,100.00
2022-08-03T22:05:29.001Z,100.00
2022-08-03T22:08:13.029Z,100.00
2022-08-03T22:10:40.481Z,100.00
2022-08-03T22:13:07.175Z,100.00
2022-08-03T22:15:33.923Z,100.00
2022-08-03T22:18:03.611Z,100.00
2022-08-03T22:20:30.706Z,100.00
2022-08-03T22:23:01.872Z,100.00
2022-08-03T22:25:30.954Z,100.00
2022-08-03T22:28:00.615Z,100.00
2022-08-03T22:30:27.561Z,100.00
2022-08-03T22:32:56.175Z,100.00
2022-08-03T22:35:25.267Z,100.00
2022-08-03T22:37:54.776Z,100.00
2022-08-03T22:40:21.864Z,100.00
2022-08-03T22:42:52.630Z,100.00
2022-08-03T22:45:45.205Z,100.00
2022-08-03T22:48:08.540Z,100.00
2022-08-03T22:50:35.588Z,100.00
2022-08-03T22:53:02.773Z,100.00
2022-08-03T22:55:31.104Z,100.00
2022-08-03T22:57:57.688Z,100.00
2022-08-03T23:00:24.819Z,100.00
2022-08-03T23:02:54.228Z,100.00
2022-08-03T23:06:01.692Z,100.00
2022-08-03T23:08:15.393Z,100.00
2022-08-03T23:10:46.976Z,100.00
2022-08-03T23:13:17.256Z,100.00
2022-08-03T23:15:57.021Z,100.00
2022-08-03T23:18:25.390Z,100.00
2022-08-03T23:20:53.596Z,100.00
2022-08-03T23:23:23.310Z,100.00
2022-08-03T23:25:51.359Z,100.00
2022-08-03T23:28:18.970Z,100.00
2022-08-03T23:30:45.861Z,100.00
2022-08-03T23:33:14.901Z,100.00
2022-08-03T23:36:27.740Z,100.00
2022-08-03T23:38:44.934Z,100.00
2022-08-03T23:41:13.628Z,100.00
2022-08-03T23:43:50.852Z,100.00
2022-08-03T23:46:21.398Z,100.00
2022-08-03T23:48:48.325Z,100.00
2022-08-03T23:51:41.051Z,100.00
2022-08-03T23:54:07.542Z,100.00
2022-08-03T23:56:45.094Z,100.00
2022-08-03T23:59:21.740Z,100.00
